createdAt,value
2023-03-05T00:01:04.294Z,75.16
2023-03-05T00:05:12.370Z,74.15
2023-03-05T00:14:06.518Z,74.33
2023-03-05T00:17:59.591Z,74.96
2023-03-05T00:21:52.650Z,75.01
2023-03-05T00:25:46.701Z,75.29
2023-03-05T00:29:40.006Z,75.84
2023-03-05T00:42:15.435Z,75.16
2023-03-05T00:46:08.524Z,75.45
2023-03-05T00:50:01.446Z,74.55
2023-03-05T00:53:54.818Z,74.42
2023-03-05T00:57:50.602Z,74.08
2023-03-05T01:01:50.658Z,74.30
2023-03-05T01:23:37.670Z,73.83
2023-03-05T01:27:30.948Z,74.01
2023-03-05T01:31:23.764Z,74.12
2023-03-05T01:35:20.052Z,74.24
2023-03-05T01:39:13.180Z,73.85
2023-03-05T01:43:24.486Z,73.53
2023-03-05T01:47:17.368Z,73.71
2023-03-05T01:59:39.204Z,73.62
2023-03-05T02:03:33.438Z,73.81
2023-03-05T02:07:26.606Z,73.38
2023-03-05T02:11:20.497Z,73.49
2023-03-05T02:15:13.361Z,73.12
2023-03-05T02:19:09.356Z,73.25
2023-03-05T02:23:16.611Z,73.43
2023-03-05T02:31:44.685Z,73.28
2023-03-05T02:35:37.683Z,73.34
2023-03-05T02:43:56.625Z,73.84
2023-03-05T02:47:49.712Z,73.45
2023-03-05T02:51:42.701Z,74.06
2023-03-05T02:55:35.552Z,74.34
2023-03-05T02:59:28.487Z,73.87
2023-03-05T03:03:21.584Z,73.91
2023-03-05T03:07:15.462Z,73.97
2023-03-05T03:11:12.798Z,73.63
2023-03-05T03:19:27.551Z,73.89
2023-03-05T03:23:20.447Z,73.77
2023-03-05T03:27:13.212Z,73.86
2023-03-05T03:31:06.193Z,74.01
2023-03-05T03:34:59.302Z,73.68
2023-03-05T03:38:51.912Z,74.12
2023-03-05T04:00:11.469Z,74.37
2023-03-05T04:04:05.014Z,74.77
2023-03-05T04:16:53.799Z,74.12
2023-03-05T04:20:47.018Z,74.30
2023-03-05T04:24:39.890Z,73.96
2023-03-05T04:28:33.757Z,74.66
2023-03-05T04:32:26.934Z,74.80
2023-03-05T04:36:19.868Z,74.72
2023-03-05T04:40:13.077Z,74.34
2023-03-05T04:44:05.900Z,74.25
2023-03-05T04:47:58.754Z,73.99
2023-03-05T04:51:52.086Z,74.28
2023-03-05T04:55:44.866Z,73.75
2023-03-05T04:59:38.274Z,73.53
2023-03-05T05:03:31.587Z,73.76
2023-03-05T05:07:24.472Z,73.54
2023-03-05T05:11:17.200Z,73.49
2023-03-05T05:28:44.962Z,73.80
2023-03-05T05:32:37.817Z,73.10
2023-03-05T05:36:30.780Z,72.69
2023-03-05T05:40:24.369Z,72.64
2023-03-05T05:44:17.250Z,72.50
2023-03-05T05:48:10.042Z,72.43
2023-03-05T05:52:02.768Z,72.52
2023-03-05T05:55:55.558Z,72.68
2023-03-05T05:59:48.515Z,72.46
2023-03-05T06:17:54.871Z,72.74
2023-03-05T06:26:19.056Z,71.93
2023-03-05T06:30:12.703Z,72.12
2023-03-05T06:43:23.268Z,72.56
2023-03-05T06:47:16.355Z,72.76
2023-03-05T07:00:20.055Z,72.91
2023-03-05T07:04:13.282Z,73.28
2023-03-05T07:08:05.948Z,73.11
2023-03-05T07:11:58.662Z,73.42
2023-03-05T07:15:51.823Z,73.16
2023-03-05T07:19:45.335Z,73.28
2023-03-05T07:23:38.752Z,73.35
2023-03-05T07:27:34.608Z,73.04
2023-03-05T07:31:31.036Z,73.00
2023-03-05T07:35:24.828Z,73.09
2023-03-05T07:39:19.428Z,72.57
2023-03-05T07:43:12.200Z,72.21
2023-03-05T07:47:05.563Z,72.53
2023-03-05T07:51:10.959Z,72.19
2023-03-05T07:55:03.816Z,71.94
2023-03-05T07:58:56.583Z,71.15
2023-03-05T08:02:50.369Z,71.09
2023-03-05T08:06:43.065Z,71.49
2023-03-05T08:10:36.863Z,71.43
2023-03-05T08:14:29.879Z,71.39
2023-03-05T08:18:22.325Z,71.46
2023-03-05T08:22:17.685Z,71.90
2023-03-05T08:26:18.935Z,72.15
2023-03-05T08:30:14.143Z,71.95
2023-03-05T08:34:07.614Z,72.56
2023-03-05T08:38:00.122Z,72.48
2023-03-05T08:41:53.014Z,72.95
2023-03-05T08:45:47.609Z,72.80
2023-03-05T08:49:40.374Z,73.29
2023-03-05T08:53:33.237Z,73.43
2023-03-05T08:57:25.728Z,73.48
2023-03-05T09:01:19.067Z,73.58
2023-03-05T09:05:11.700Z,72.83
2023-03-05T09:09:04.311Z,72.90
2023-03-05T09:12:56.943Z,72.64
2023-03-05T09:16:49.747Z,72.05
2023-03-05T09:20:42.681Z,72.00
2023-03-05T09:24:35.190Z,71.40
2023-03-05T09:28:27.975Z,71.36
2023-03-05T09:32:20.632Z,70.93
2023-03-05T09:36:18.317Z,71.17
2023-03-05T09:40:16.158Z,71.53
2023-03-05T09:44:43.650Z,70.84
2023-03-05T09:48:59.833Z,70.19
2023-03-05T09:52:57.339Z,70.13
2023-03-05T09:56:57.105Z,69.93
2023-03-05T10:00:53.659Z,70.45
2023-03-05T10:05:04.726Z,70.20
2023-03-05T10:09:21.240Z,69.91
2023-03-05T10:13:25.647Z,69.58
2023-03-05T10:17:40.253Z,69.71
2023-03-05T10:21:42.498Z,69.35
2023-03-05T10:25:49.983Z,69.25
2023-03-05T10:30:07.664Z,68.92
2023-03-05T10:34:24.103Z,69.03
2023-03-05T10:38:35.678Z,68.51
2023-03-05T10:42:35.564Z,68.12
2023-03-05T10:46:36.403Z,69.19
2023-03-05T10:50:37.541Z,68.74
2023-03-05T10:54:36.417Z,68.29
2023-03-05T10:58:29.245Z,67.69
2023-03-05T11:02:25.905Z,67.92
2023-03-05T11:06:47.877Z,67.62
2023-03-05T11:10:40.893Z,67.51
2023-03-05T11:14:35.282Z,67.92
2023-03-05T11:18:31.698Z,67.32
2023-03-05T11:22:26.288Z,66.75
2023-03-05T11:26:23.409Z,66.98
2023-03-05T11:30:28.357Z,66.82
2023-03-05T11:34:21.162Z,67.23
2023-03-05T11:38:26.235Z,66.81
2023-03-05T11:42:26.106Z,65.99
2023-03-05T11:46:21.079Z,65.76
2023-03-05T11:50:16.680Z,65.60
2023-03-05T11:54:16.365Z,64.91
2023-03-05T11:58:21.452Z,63.69
2023-03-05T12:02:24.356Z,63.55
2023-03-05T12:06:35.946Z,63.37
2023-03-05T12:10:30.118Z,62.07
2023-03-05T12:14:33.481Z,62.00
2023-03-05T12:18:49.002Z,61.33
2023-03-05T12:22:43.341Z,60.79
2023-03-05T12:26:58.521Z,60.50
2023-03-05T12:30:52.414Z,60.34
2023-03-05T12:34:49.557Z,61.03
2023-03-05T12:38:42.519Z,60.76
2023-03-05T12:42:38.014Z,61.00
2023-03-05T12:46:33.213Z,60.59
2023-03-05T12:50:30.257Z,60.63
2023-03-05T12:54:29.800Z,59.77
2023-03-05T12:58:57.489Z,59.83
2023-03-05T13:02:58.857Z,60.41
2023-03-05T13:07:01.605Z,60.97
2023-03-05T13:10:58.556Z,61.59
2023-03-05T13:15:15.377Z,61.83
2023-03-05T13:19:18.346Z,62.55
2023-03-05T13:23:30.140Z,62.50
2023-03-05T13:27:31.312Z,61.65
2023-03-05T13:31:24.926Z,62.36
2023-03-05T13:35:20.377Z,62.28
2023-03-05T13:39:20.734Z,62.80
2023-03-05T13:43:20.466Z,63.08
2023-03-05T13:47:22.525Z,63.45
2023-03-05T13:51:15.784Z,63.23
2023-03-05T13:55:18.045Z,63.62
2023-03-05T13:59:19.932Z,63.02
2023-03-05T14:03:27.300Z,62.56
2023-03-05T14:07:41.261Z,62.41
2023-03-05T14:11:37.277Z,63.15
2023-03-05T14:15:35.815Z,62.13
2023-03-05T14:19:35.994Z,61.62
2023-03-05T14:23:47.942Z,61.63
2023-03-05T14:27:41.358Z,61.60
2023-03-05T14:31:50.796Z,61.78
2023-03-05T14:35:50.504Z,61.40
2023-03-05T14:39:58.625Z,61.62
2023-03-05T14:43:52.641Z,62.01
2023-03-05T14:47:48.649Z,61.94
2023-03-05T14:51:47.683Z,62.55
2023-03-05T14:55:49.056Z,62.67
2023-03-05T14:59:42.285Z,62.59
2023-03-05T15:03:38.745Z,62.34
2023-03-05T15:07:33.286Z,62.82
2023-03-05T15:11:27.034Z,63.53
2023-03-05T15:15:22.599Z,63.64
2023-03-05T15:19:15.916Z,63.37
2023-03-05T15:23:10.014Z,63.25
2023-03-05T15:27:04.838Z,62.49
2023-03-05T15:31:00.794Z,61.90
2023-03-05T15:34:54.966Z,61.21
2023-03-05T15:38:48.700Z,61.51
2023-03-05T15:42:42.644Z,62.27
2023-03-05T15:46:36.950Z,62.26
2023-03-05T15:50:30.588Z,62.76
2023-03-05T15:54:24.136Z,62.90
2023-03-05T15:58:18.272Z,62.46
2023-03-05T16:02:11.914Z,62.82
2023-03-05T16:06:07.036Z,62.69
2023-03-05T16:10:01.087Z,62.00
2023-03-05T16:13:54.395Z,61.74
2023-03-05T16:17:52.440Z,60.89
2023-03-05T16:21:46.687Z,61.05
2023-03-05T16:25:41.001Z,61.25
2023-03-05T16:29:35.317Z,60.90
2023-03-05T16:33:29.253Z,60.54
2023-03-05T16:37:24.690Z,60.11
2023-03-05T16:41:19.581Z,59.48
2023-03-05T16:45:15.837Z,59.35
2023-03-05T16:49:12.032Z,59.30
2023-03-05T16:53:05.665Z,59.64
2023-03-05T17:00:54.525Z,60.22
2023-03-05T17:04:50.044Z,60.18
2023-03-05T17:08:44.333Z,60.31
2023-03-05T17:12:38.865Z,60.58
2023-03-05T17:16:33.114Z,61.02
2023-03-05T17:20:26.796Z,60.56
2023-03-05T17:24:22.374Z,60.42
2023-03-05T17:28:16.457Z,60.48
2023-03-05T17:32:11.525Z,60.64
2023-03-05T17:36:06.663Z,61.33
2023-03-05T17:40:05.818Z,60.84
2023-03-05T17:44:03.191Z,61.21
2023-03-05T17:47:58.822Z,61.33
2023-03-05T17:51:52.913Z,61.44
2023-03-05T17:55:46.998Z,61.62
2023-03-05T17:59:41.503Z,61.81
2023-03-05T18:03:41.623Z,62.05
2023-03-05T18:07:41.204Z,61.98
2023-03-05T18:11:35.218Z,62.04
2023-03-05T18:15:42.582Z,61.96
2023-03-05T18:19:36.798Z,62.45
2023-03-05T18:23:30.934Z,62.40
2023-03-05T18:27:25.781Z,62.37
2023-03-05T18:31:22.152Z,62.56
2023-03-05T18:35:20.586Z,62.50
2023-03-05T18:39:17.234Z,62.36
2023-03-05T18:43:12.709Z,62.32
2023-03-05T18:47:06.523Z,62.11
2023-03-05T18:51:05.195Z,61.78
2023-03-05T18:54:59.744Z,61.78
2023-03-05T18:58:54.032Z,61.81
2023-03-05T19:02:48.325Z,62.35
2023-03-05T19:06:44.445Z,62.89
2023-03-05T19:10:41.898Z,63.05
2023-03-05T19:14:35.650Z,63.33
2023-03-05T19:18:34.550Z,64.75
2023-03-05T19:22:32.653Z,64.88
2023-03-05T19:26:32.605Z,65.17
2023-03-05T19:30:34.138Z,65.01
2023-03-05T19:34:28.177Z,65.10
2023-03-05T19:38:22.457Z,64.80
2023-03-05T19:42:16.766Z,65.06
2023-03-05T19:46:11.220Z,65.42
2023-03-05T19:50:07.490Z,65.49
2023-03-05T19:54:07.610Z,65.75
2023-03-05T19:58:07.671Z,65.34
2023-03-05T20:02:12.295Z,65.43
2023-03-05T20:06:17.546Z,65.57
2023-03-05T20:10:21.913Z,65.70
2023-03-05T20:14:38.389Z,65.81
2023-03-05T20:18:45.030Z,65.98
2023-03-05T20:22:47.083Z,66.85
2023-03-05T20:26:53.450Z,66.63
2023-03-05T20:30:55.672Z,66.55
2023-03-05T20:34:52.737Z,66.86
2023-03-05T20:38:48.798Z,67.18
2023-03-05T20:42:43.642Z,67.01
2023-03-05T20:47:03.472Z,67.01
2023-03-05T20:51:28.934Z,67.58
2023-03-05T20:55:33.499Z,67.24
2023-03-05T20:59:40.962Z,67.55
2023-03-05T21:03:44.230Z,67.32
2023-03-05T21:08:00.026Z,67.28
2023-03-05T21:11:58.076Z,67.54
2023-03-05T21:16:08.066Z,67.67
2023-03-05T21:20:03.945Z,67.28
2023-03-05T21:24:01.996Z,66.99
2023-03-05T21:28:26.905Z,67.04
2023-03-05T21:32:25.849Z,67.25
2023-03-05T21:36:27.157Z,67.17
2023-03-05T21:40:28.432Z,66.44
2023-03-05T21:44:34.047Z,66.19
2023-03-05T21:48:34.401Z,65.96
2023-03-05T21:52:35.486Z,66.29
2023-03-05T22:00:45.815Z,67.09
2023-03-05T22:04:39.181Z,67.28
2023-03-05T22:08:31.947Z,67.23
2023-03-05T22:12:43.207Z,66.84
2023-03-05T22:16:35.846Z,66.78
2023-03-05T22:20:28.761Z,67.16
2023-03-05T22:24:22.062Z,68.18
2023-03-05T22:28:14.747Z,68.08
2023-03-05T22:32:07.679Z,68.40
2023-03-05T22:36:00.528Z,68.36
2023-03-05T22:39:57.024Z,68.94
2023-03-05T22:43:51.041Z,69.27
2023-03-05T22:47:46.819Z,69.00
2023-03-05T22:51:39.624Z,68.11
2023-03-05T22:55:32.182Z,66.80
2023-03-05T22:59:25.206Z,67.32
2023-03-05T23:03:18.330Z,67.35
2023-03-05T23:07:11.062Z,66.75
2023-03-05T23:11:10.168Z,66.65
2023-03-05T23:15:06.406Z,67.11
2023-03-05T23:18:59.532Z,66.45
2023-03-05T23:22:56.318Z,66.70
